Time;durP1;ratioP1;P1;durP2;ratioP2;P2;SDS_P1;SDS_P2;PMS_P1;PMS_P2;Temp;Humidity;BMP_temperature;BMP_pressure;BME280_temperature;BME280_humidity;BME280_pressure;Samples;Min_cycle;Max_cycle;Signal;HPM_P1;HPM_P2
2024/01/03 00:02:07;;;;;;;5.90;3.60;;;;;;;5.03;100.00;98259.09;105557;1253;81461;-59
2024/01/03 00:04:35;;;;;;;9.90;5.40;;;;;;;5.05;100.00;98249.46;105599;1254;70401;-59
2024/01/03 00:07:04;;;;;;;12.20;6.00;;;;;;;5.05;100.00;98245.96;105486;1256;69132;-59
2024/01/03 00:09:33;;;;;;;16.40;6.80;;;;;;;5.06;100.00;98240.73;105559;1256;69193;-59
2024/01/03 00:12:03;;;;;;;9.60;4.90;;;;;;;5.07;100.00;98242.08;105463;1253;73106;-59
2024/01/03 00:14:34;;;;;;;12.40;5.90;;;;;;;5.08;100.00;98239.95;105604;1256;82002;-59
2024/01/03 00:17:05;;;;;;;12.20;6.20;;;;;;;5.08;100.00;98238.03;105533;1253;71706;-59
2024/01/03 00:19:35;;;;;;;11.40;5.80;;;;;;;5.09;100.00;98231.73;105534;1254;70660;-60
2024/01/03 00:22:03;;;;;;;27.70;11.60;;;;;;;5.11;100.00;98234.08;105511;1256;69185;-59
2024/01/03 00:24:45;;;;;;;37.70;16.90;;;;;;;5.12;100.00;98230.75;105476;1253;72678;-59
2024/01/03 00:27:13;;;;;;;49.70;15.10;;;;;;;5.13;100.00;98228.60;105530;1252;81227;-59
2024/01/03 00:29:47;;;;;;;25.40;9.20;;;;;;;5.17;100.00;98225.70;105309;1254;71820;-59
2024/01/03 00:32:16;;;;;;;46.90;13.20;;;;;;;5.17;100.00;98221.00;105455;1254;69708;-59
2024/01/03 00:34:44;;;;;;;31.30;10.30;;;;;;;5.17;100.00;98218.38;105498;1258;69122;-59
2024/01/03 00:37:22;;;;;;;29.70;10.10;;;;;;;5.18;100.00;98219.73;105536;1256;72994;-59
2024/01/03 00:39:52;;;;;;;30.80;9.60;;;;;;;5.19;100.00;98215.36;105453;1253;82054;-59
2024/01/03 00:42:20;;;;;;;19.50;7.40;;;;;;;5.20;100.00;98211.51;105509;1252;71385;-59
2024/01/03 00:44:49;;;;;;;40.50;16.30;;;;;;;5.21;100.00;98207.11;105585;1253;69159;-59
2024/01/03 00:47:18;;;;;;;55.00;22.50;;;;;;;5.22;100.00;98200.83;105452;1256;69155;-59
2024/01/03 00:49:47;;;;;;;24.30;7.90;;;;;;;5.22;100.00;98199.42;105561;1256;73534;-60
2024/01/03 00:52:16;;;;;;;12.00;4.60;;;;;;;5.24;100.00;98197.45;105604;1256;81392;-59
2024/01/03 00:54:45;;;;;;;14.10;6.10;;;;;;;5.25;100.00;98194.95;105447;1253;71944;-59
2024/01/03 00:57:14;;;;;;;30.50;10.10;;;;;;;5.26;100.00;98193.34;105544;1256;69121;-59
2024/01/03 00:59:45;;;;;;;20.40;7.90;;;;;;;5.27;100.00;98191.55;105528;1253;69112;-59
2024/01/03 01:02:13;;;;;;;20.70;8.30;;;;;;;5.29;100.00;98193.20;105425;1258;71716;-59
2024/01/03 01:04:41;;;;;;;15.00;7.40;;;;;;;5.30;100.00;98185.52;105466;1257;81892;-59
2024/01/03 01:07:11;;;;;;;14.30;6.80;;;;;;;5.31;100.00;98187.34;105399;1256;71831;-59
2024/01/03 01:09:40;;;;;;;;;;;;;;;5.32;100.00;98181.41;105458;1257;69174;-60
2024/01/03 01:12:08;;;;;;;14.00;4.80;;;;;;;5.33;100.00;98180.34;105430;1257;69140;-59
2024/01/03 01:14:37;;;;;;;10.30;5.10;;;;;;;5.34;100.00;98184.13;105485;1257;73161;-59
2024/01/03 01:17:05;;;;;;;24.30;8.80;;;;;;;5.34;100.00;98177.49;105454;1253;81990;-60
2024/01/03 01:19:34;;;;;;;8.40;3.20;;;;;;;5.34;100.00;98172.86;105454;1257;71958;-59
2024/01/03 01:22:02;;;;;;;9.90;4.20;;;;;;;5.35;100.00;98170.38;105486;1259;69120;-59
2024/01/03 01:24:30;;;;;;;16.30;6.20;;;;;;;5.35;100.00;98165.35;105462;1257;69186;-59
2024/01/03 01:26:59;;;;;;;13.70;5.50;;;;;;;5.36;100.00;98164.63;105456;1257;74171;-59
2024/01/03 01:29:27;;;;;;;13.40;5.70;;;;;;;5.36;100.00;98163.90;105531;1256;83067;-59
2024/01/03 01:31:55;;;;;;;9.40;4.10;;;;;;;5.37;100.00;98157.61;105456;1254;71783;-59
2024/01/03 01:34:23;;;;;;;8.70;4.00;;;;;;;5.39;100.00;98162.40;105477;1257;69131;-59
2024/01/03 01:36:52;;;;;;;9.20;4.50;;;;;;;5.40;100.00;98164.39;105458;1257;69192;-59
2024/01/03 01:39:20;;;;;;;8.20;3.00;;;;;;;5.41;100.00;98160.89;105466;1253;73022;-60
2024/01/03 01:41:48;;;;;;;4.90;2.10;;;;;;;5.43;100.00;98161.85;105448;1257;81376;-59
2024/01/03 01:44:16;;;;;;;4.70;2.10;;;;;;;5.44;100.00;98165.94;105480;1259;72758;-59
2024/01/03 01:46:45;;;;;;;5.50;2.70;;;;;;;5.45;100.00;98165.17;105457;1259;69116;-59
2024/01/03 01:49:16;;;;;;;3.60;2.20;;;;;;;5.46;100.00;98159.95;105557;1257;69184;-59
2024/01/03 01:51:45;;;;;;;4.90;2.40;;;;;;;5.46;100.00;98158.37;105540;1259;72995;-60
2024/01/03 01:54:14;;;;;;;2.90;1.40;;;;;;;5.47;100.00;98158.48;105415;1259;81548;-60
2024/01/03 01:56:42;;;;;;;4.30;2.40;;;;;;;5.48;100.00;98151.86;105518;1257;72865;-60
2024/01/03 01:59:10;;;;;;;2.90;1.50;;;;;;;5.47;100.00;98150.34;105323;1259;69185;-60
2024/01/03 02:01:39;;;;;;;2.60;1.60;;;;;;;5.48;100.00;98150.83;105490;1259;69120;-60
2024/01/03 02:04:08;;;;;;;4.50;2.00;;;;;;;5.48;100.00;98154.27;105356;1260;73550;-60
2024/01/03 02:06:37;;;;;;;23.10;8.60;;;;;;;5.48;100.00;98137.64;105362;1260;81605;-59
2024/01/03 02:09:05;;;;;;;9.20;4.00;;;;;;;5.48;100.00;98132.98;105507;1254;71397;-60
2024/01/03 02:11:33;;;;;;;7.90;4.20;;;;;;;5.48;100.00;98132.46;105492;1258;69063;-60
2024/01/03 02:14:02;;;;;;;5.60;2.80;;;;;;;5.48;100.00;98129.48;105483;1257;69149;-60
2024/01/03 02:16:30;;;;;;;7.20;3.10;;;;;;;5.49;100.00;98126.34;105399;1259;72656;-60
2024/01/03 02:18:58;;;;;;;7.40;3.60;;;;;;;5.50;100.00;98127.84;105460;1258;81449;-59
2024/01/03 02:21:26;;;;;;;3.50;2.00;;;;;;;5.52;100.00;98120.64;105526;1257;73048;-60
2024/01/03 02:23:55;;;;;;;2.50;1.20;;;;;;;5.53;100.00;98121.27;105454;1257;69170;-60
2024/01/03 02:26:23;;;;;;;3.50;1.60;;;;;;;5.54;100.00;98120.19;105438;1257;69153;-60
2024/01/03 02:28:57;;;;;;;3.10;1.50;;;;;;;5.55;100.00;98115.60;105523;1257;73711;-60
2024/01/03 02:31:25;;;;;;;2.70;1.10;;;;;;;5.56;100.00;98118.33;105527;1258;81760;-60
2024/01/03 02:33:54;;;;;;;2.10;1.00;;;;;;;5.58;100.00;98110.77;105416;1257;71580;-60
2024/01/03 02:36:22;;;;;;;2.00;0.80;;;;;;;5.61;100.00;98107.36;105489;1264;69208;-60
2024/01/03 02:38:52;;;;;;;3.60;0.80;;;;;;;5.64;100.00;98109.48;105290;1255;69122;-60
2024/01/03 02:41:21;;;;;;;1.70;0.80;;;;;;;5.66;100.00;98105.55;105511;1257;72925;-60
2024/01/03 02:43:49;;;;;;;1.10;0.70;;;;;;;5.69;100.00;98098.64;105516;1254;83587;-60
2024/01/03 02:46:19;;;;;;;2.90;0.70;;;;;;;5.70;100.00;98097.14;105470;1257;72340;-60
2024/01/03 02:48:47;;;;;;;2.10;1.10;;;;;;;5.73;100.00;98094.42;105530;1257;69184;-60
2024/01/03 02:51:21;;;;;;;2.70;0.90;;;;;;;5.76;100.00;98089.20;105465;1258;69163;-59
2024/01/03 02:53:50;;;;;;;2.20;0.80;;;;;;;5.80;100.00;98090.92;105455;1256;74353;-60
2024/01/03 02:56:18;;;;;;;1.40;0.70;;;;;;;5.83;100.00;98094.57;105457;1258;81963;-59
2024/01/03 02:58:47;;;;;;;1.20;0.80;;;;;;;5.86;100.00;98095.62;105481;1256;70811;-59
2024/01/03 03:01:15;;;;;;;2.70;0.90;;;;;;;5.88;100.00;98090.80;105431;1258;69116;-60
2024/01/03 03:03:43;;;;;;;1.70;0.70;;;;;;;5.91;100.00;98095.88;105436;1258;69219;-59
2024/01/03 03:06:12;;;;;;;1.20;0.90;;;;;;;5.93;100.00;98088.64;105417;1256;73051;-60
2024/01/03 03:08:40;;;;;;;1.40;0.80;;;;;;;5.96;100.00;98089.37;105442;1256;81530;-59
2024/01/03 03:11:08;;;;;;;2.00;1.10;;;;;;;5.97;100.00;98088.92;105447;1259;72632;-59
2024/01/03 03:13:36;;;;;;;2.50;1.30;;;;;;;5.97;100.00;98092.05;105471;1255;69267;-59
2024/01/03 03:16:07;;;;;;;2.50;1.00;;;;;;;5.98;100.00;98094.80;105436;1257;69779;-59
2024/01/03 03:18:36;;;;;;;1.40;0.80;;;;;;;5.96;100.00;98098.19;105500;1258;73504;-59
2024/01/03 03:21:04;;;;;;;1.00;0.80;;;;;;;5.97;100.00;98096.94;105511;1258;82654;-59
2024/01/03 03:23:33;;;;;;;1.10;0.70;;;;;;;5.98;100.00;98097.73;105509;1257;72353;-59
2024/01/03 03:26:03;;;;;;;1.10;0.80;;;;;;;6.00;100.00;98095.58;105488;1257;69096;-59
2024/01/03 03:28:31;;;;;;;1.80;0.80;;;;;;;6.02;100.00;98090.42;105521;1256;69195;-59
2024/01/03 03:31:00;;;;;;;0.80;0.50;;;;;;;6.05;100.00;98094.43;105567;1257;73194;-59
2024/01/03 03:33:28;;;;;;;1.10;0.70;;;;;;;6.08;100.00;98095.66;105506;1257;82861;-59
2024/01/03 03:35:56;;;;;;;1.70;0.70;;;;;;;6.08;100.00;98091.63;105416;1255;71973;-59
2024/01/03 03:38:24;;;;;;;1.40;0.70;;;;;;;6.08;100.00;98093.92;105470;1256;69164;-59
2024/01/03 03:40:52;;;;;;;1.00;0.50;;;;;;;6.08;100.00;98097.05;105429;1259;69125;-59
2024/01/03 03:43:21;;;;;;;1.20;0.60;;;;;;;6.05;100.00;98098.56;105547;1259;73591;-59
2024/01/03 03:45:49;;;;;;;1.30;0.70;;;;;;;6.03;100.00;98104.07;105456;1254;81711;-60
2024/01/03 03:48:17;;;;;;;1.10;0.60;;;;;;;6.01;100.00;98101.58;105510;1262;71672;-59
2024/01/03 03:50:46;;;;;;;1.40;0.50;;;;;;;6.00;100.00;98100.41;105505;1255;69192;-59
2024/01/03 03:53:14;;;;;;;2.10;0.80;;;;;;;5.99;100.00;98104.42;105466;1257;69484;-59
2024/01/03 03:55:42;;;;;;;1.20;0.60;;;;;;;6.00;100.00;98102.67;105481;1257;75125;-59
2024/01/03 03:58:11;;;;;;;2.00;0.80;;;;;;;6.00;100.00;98104.03;105563;1257;81599;-59
2024/01/03 04:00:39;;;;;;;2.90;1.40;;;;;;;5.99;100.00;98100.46;105525;1257;71610;-59
2024/01/03 04:03:08;;;;;;;2.70;1.10;;;;;;;5.99;100.00;98100.48;105440;1259;69097;-59
2024/01/03 04:05:38;;;;;;;3.80;1.10;;;;;;;5.98;100.00;98100.88;105456;1257;69214;-59
2024/01/03 04:08:06;;;;;;;3.30;0.80;;;;;;;5.99;100.00;98101.30;105515;1255;73159;-59
2024/01/03 04:10:36;;;;;;;0.90;0.70;;;;;;;6.10;100.00;98113.05;105461;1257;82713;-59
2024/01/03 04:13:06;;;;;;;0.60;0.30;;;;;;;6.33;100.00;98111.40;105504;1258;71926;-58
2024/01/03 04:15:34;;;;;;;0.60;0.30;;;;;;;6.54;100.00;98105.16;105505;1257;69146;-59
2024/01/03 04:18:04;;;;;;;0.80;0.30;;;;;;;6.75;100.00;98105.69;105424;1255;69180;-59
2024/01/03 04:20:33;;;;;;;0.30;0.30;;;;;;;6.93;100.00;98113.55;105470;1258;72834;-59
2024/01/03 04:23:01;;;;;;;0.10;0.10;;;;;;;7.11;100.00;98117.48;105472;1258;82726;-60
2024/01/03 04:25:29;;;;;;;0.30;0.20;;;;;;;7.28;100.00;98104.67;105482;1257;71748;-60
2024/01/03 04:27:58;;;;;;;0.30;0.20;;;;;;;7.39;100.00;98107.80;105474;1254;69102;-59
2024/01/03 04:30:26;;;;;;;0.20;0.20;;;;;;;7.48;100.00;98121.15;105486;1257;69224;-59
2024/01/03 04:32:54;;;;;;;0.70;0.30;;;;;;;7.55;100.00;98113.94;105506;1257;72857;-59
2024/01/03 04:35:23;;;;;;;0.30;0.30;;;;;;;7.57;100.00;98117.52;105502;1254;82797;-59
2024/01/03 04:37:51;;;;;;;1.10;0.40;;;;;;;7.59;100.00;98119.83;105510;1257;73524;-59
2024/01/03 04:40:19;;;;;;;0.30;0.20;;;;;;;7.59;100.00;98119.78;105471;1258;69282;-59
2024/01/03 04:42:48;;;;;;;0.20;0.20;;;;;;;7.60;100.00;98122.02;105426;1256;69215;-59
2024/01/03 04:45:16;;;;;;;1.00;0.40;;;;;;;7.58;100.00;98124.17;105479;1254;73107;-59
2024/01/03 04:47:44;;;;;;;0.80;0.40;;;;;;;7.59;100.00;98128.14;105442;1256;81999;-59
2024/01/03 04:50:12;;;;;;;0.40;0.20;;;;;;;7.60;100.00;98130.36;105443;1257;71602;-59
2024/01/03 04:52:41;;;;;;;0.90;0.30;;;;;;;7.60;100.00;98129.95;105409;1257;69135;-59
2024/01/03 04:55:10;;;;;;;0.50;0.40;;;;;;;7.62;100.00;98135.45;105611;1254;69259;-59
2024/01/03 04:57:38;;;;;;;1.10;0.60;;;;;;;7.64;100.00;98129.79;105542;1254;73288;-59
2024/01/03 05:00:07;;;;;;;0.90;0.40;;;;;;;7.65;100.00;98132.67;105527;1257;81843;-59
2024/01/03 05:02:36;;;;;;;0.80;0.30;;;;;;;7.67;100.00;98126.60;105508;1257;71904;-59
2024/01/03 05:05:05;;;;;;;0.50;0.40;;;;;;;7.74;100.00;98129.34;105461;1255;69570;-59
2024/01/03 05:07:34;;;;;;;0.70;0.40;;;;;;;7.78;100.00;98123.02;105449;1257;69190;-59
2024/01/03 05:10:03;;;;;;;1.60;0.50;;;;;;;7.79;100.00;98132.80;105518;1257;73446;-57
2024/01/03 05:12:31;;;;;;;0.20;0.20;;;;;;;7.83;100.00;98135.52;105537;1254;81431;-59
2024/01/03 05:14:59;;;;;;;0.30;0.20;;;;;;;7.88;100.00;98134.20;105457;1254;73083;-59
2024/01/03 05:17:28;;;;;;;0.30;0.20;;;;;;;7.92;100.00;98136.58;105462;1259;69191;-59
2024/01/03 05:19:57;;;;;;;0.50;0.30;;;;;;;7.95;100.00;98136.55;105528;1254;69180;-59
2024/01/03 05:22:25;;;;;;;2.60;0.30;;;;;;;7.95;100.00;98139.84;105487;1254;75096;-59
2024/01/03 05:24:54;;;;;;;2.20;0.50;;;;;;;7.93;100.00;98141.02;105501;1257;82562;-58
2024/01/03 05:27:23;;;;;;;1.40;0.40;;;;;;;7.91;100.00;98146.67;105496;1254;70728;-59
2024/01/03 05:29:51;;;;;;;2.00;0.70;;;;;;;7.90;100.00;98151.09;105518;1257;69171;-59
2024/01/03 05:32:20;;;;;;;0.90;0.50;;;;;;;7.89;100.00;98150.81;105488;1256;69197;-59
2024/01/03 05:34:49;;;;;;;0.80;0.40;;;;;;;7.87;100.00;98153.23;105457;1257;73535;-59
2024/01/03 05:37:18;;;;;;;1.60;0.40;;;;;;;7.85;100.00;98148.31;105459;1257;81467;-59
2024/01/03 05:39:46;;;;;;;5.60;2.70;;;;;;;7.85;100.00;98154.56;105437;1257;72237;-58
2024/01/03 05:42:15;;;;;;;2.30;0.80;;;;;;;7.81;100.00;98158.39;105446;1257;69120;-59
2024/01/03 05:44:43;;;;;;;5.00;1.20;;;;;;;7.80;100.00;98161.63;105510;1255;69142;-57
2024/01/03 05:47:11;;;;;;;3.00;0.90;;;;;;;7.79;100.00;98168.97;105612;1254;72757;-58
2024/01/03 05:49:39;;;;;;;1.50;0.50;;;;;;;7.83;100.00;98165.63;105616;1254;80724;-58
2024/01/03 05:52:07;;;;;;;1.10;0.50;;;;;;;7.86;100.00;98168.58;105514;1254;73526;-57
2024/01/03 05:54:36;;;;;;;2.30;0.70;;;;;;;7.90;100.00;98169.38;105613;1253;69446;-58
2024/01/03 05:57:05;;;;;;;3.00;0.40;;;;;;;7.92;100.00;98171.99;105605;1255;69259;-57
2024/01/03 05:59:35;;;;;;;2.40;0.80;;;;;;;7.93;100.00;98175.27;105701;1256;73059;-59
2024/01/03 06:02:03;;;;;;;1.30;0.60;;;;;;;7.92;100.00;98177.77;105724;1254;81944;-57
2024/01/03 06:04:32;;;;;;;3.40;0.90;;;;;;;7.91;100.00;98177.11;105853;1255;72952;-57
2024/01/03 06:07:00;;;;;;;1.80;0.70;;;;;;;7.90;100.00;98183.25;105721;1253;69211;-58
2024/01/03 06:09:28;;;;;;;3.20;0.90;;;;;;;7.90;100.00;98183.83;105600;1257;69324;-58
2024/01/03 06:11:56;;;;;;;1.70;0.70;;;;;;;7.87;100.00;98189.02;105535;1254;73012;-56
2024/01/03 06:14:24;;;;;;;0.90;0.40;;;;;;;7.89;100.00;98191.16;105792;1257;81410;-56
2024/01/03 06:16:53;;;;;;;1.40;0.60;;;;;;;7.91;100.00;98192.44;105598;1254;71871;-55
2024/01/03 06:19:21;;;;;;;1.30;0.50;;;;;;;7.92;100.00;98196.52;105579;1256;69235;-56
2024/01/03 06:21:49;;;;;;;2.40;0.50;;;;;;;7.94;100.00;98201.60;105561;1254;69177;-55
2024/01/03 06:24:17;;;;;;;1.40;0.70;;;;;;;7.96;100.00;98209.86;105758;1254;74709;-57
2024/01/03 06:26:45;;;;;;;1.50;0.50;;;;;;;7.99;100.00;98208.46;105591;1256;81689;-57
2024/01/03 06:29:15;;;;;;;1.30;0.50;;;;;;;8.02;100.00;98213.79;105737;1257;71310;-57
2024/01/03 06:31:43;;;;;;;2.40;0.70;;;;;;;8.06;100.00;98216.20;105628;1257;69127;-57
2024/01/03 06:34:12;;;;;;;2.70;1.00;;;;;;;8.08;100.00;98216.42;105725;1257;69144;-58
2024/01/03 06:36:40;;;;;;;2.20;0.90;;;;;;;8.08;100.00;98221.30;105658;1256;72858;-58
2024/01/03 06:39:08;;;;;;;2.30;1.00;;;;;;;8.09;100.00;98219.01;105581;1257;81741;-57
2024/01/03 06:41:37;;;;;;;6.60;3.20;;;;;;;8.07;100.00;98220.48;105575;1256;73470;-57
2024/01/03 06:44:06;;;;;;;12.20;5.00;;;;;;;8.05;100.00;98225.47;105650;1257;69136;-57
2024/01/03 06:46:34;;;;;;;4.90;1.20;;;;;;;8.03;100.00;98229.42;105609;1256;69189;-57
2024/01/03 06:49:02;;;;;;;18.50;6.10;;;;;;;8.02;100.00;98224.61;105658;1253;73277;-57
2024/01/03 06:51:30;;;;;;;16.60;5.80;;;;;;;8.00;100.00;98234.15;105602;1256;82101;-57
2024/01/03 06:53:59;;;;;;;4.30;1.30;;;;;;;7.97;100.00;98232.91;105854;1256;72192;-57
2024/01/03 06:56:27;;;;;;;4.10;1.50;;;;;;;7.94;100.00;98241.83;105640;1255;69126;-57
2024/01/03 06:58:58;;;;;;;14.20;6.00;;;;;;;7.92;100.00;98238.27;105566;1254;69210;-57
2024/01/03 07:01:26;;;;;;;10.30;3.60;;;;;;;7.91;100.00;98240.77;105535;1255;72613;-57
2024/01/03 07:03:54;;;;;;;8.10;2.50;;;;;;;7.87;100.00;98244.85;105560;1254;81798;-56
2024/01/03 07:06:23;;;;;;;10.80;5.30;;;;;;;7.86;100.00;98249.11;105682;1255;72660;-56
2024/01/03 07:08:53;;;;;;;8.60;3.00;;;;;;;7.84;100.00;98253.20;105655;1256;69118;-56
2024/01/03 07:11:21;;;;;;;3.50;1.20;;;;;;;7.86;100.00;98256.73;105648;1254;69144;-58
2024/01/03 07:13:50;;;;;;;3.90;1.00;;;;;;;7.90;100.00;98258.39;105684;1254;74093;-58
2024/01/03 07:16:18;;;;;;;3.80;1.00;;;;;;;7.99;100.00;98264.65;105596;1254;83459;-58
2024/01/03 07:18:46;;;;;;;1.70;0.80;;;;;;;8.03;100.00;98268.88;105579;1255;71776;-57
2024/01/03 07:21:15;;;;;;;4.60;1.10;;;;;;;8.07;100.00;98266.27;105542;1252;69155;-58
2024/01/03 07:23:43;;;;;;;2.20;0.80;;;;;;;8.08;100.00;98271.42;105723;1256;69218;-58
2024/01/03 07:26:12;;;;;;;0.80;0.60;;;;;;;8.08;100.00;98276.41;105674;1256;75321;-58
2024/01/03 07:28:40;;;;;;;0.80;0.60;;;;;;;8.16;100.00;98276.98;105712;1255;81476;-59
2024/01/03 07:31:08;;;;;;;2.70;0.50;;;;;;;8.21;100.00;98279.65;105829;1256;72938;-58
2024/01/03 07:33:36;;;;;;;3.00;1.00;;;;;;;8.22;100.00;98279.55;105680;1255;69157;-60
2024/01/03 07:36:05;;;;;;;1.60;0.50;;;;;;;8.27;100.00;98284.49;105790;1255;69214;-59
2024/01/03 07:38:33;;;;;;;0.80;0.30;;;;;;;8.31;100.00;98284.11;105594;1253;73127;-58
2024/01/03 07:41:02;;;;;;;1.30;0.50;;;;;;;8.34;100.00;98284.61;105576;1257;81585;-59
2024/01/03 07:43:30;;;;;;;1.70;0.40;;;;;;;8.38;100.00;98289.22;105678;1254;73033;-58
2024/01/03 07:45:58;;;;;;;1.30;0.50;;;;;;;8.42;100.00;98288.96;105711;1256;69169;-59
2024/01/03 07:48:26;;;;;;;1.70;0.50;;;;;;;8.48;100.00;98290.35;105625;1256;69121;-58
2024/01/03 07:50:55;;;;;;;1.30;0.50;;;;;;;8.54;100.00;98294.49;105852;1253;72896;-58
2024/01/03 07:53:24;;;;;;;1.50;0.40;;;;;;;8.62;100.00;98299.09;105549;1256;81876;-58
2024/01/03 07:55:53;;;;;;;1.40;0.20;;;;;;;8.69;100.00;98300.52;105601;1256;72882;-59
2024/01/03 07:58:21;;;;;;;0.70;0.40;;;;;;;8.80;100.00;98304.08;105585;1253;69206;-59
2024/01/03 08:00:49;;;;;;;1.20;0.30;;;;;;;8.87;100.00;98301.33;105745;1257;69160;-58
2024/01/03 08:03:17;;;;;;;0.90;0.40;;;;;;;8.90;100.00;98304.78;105644;1254;74496;-58
2024/01/03 08:05:46;;;;;;;2.00;0.50;;;;;;;8.92;100.00;98307.46;105576;1256;81531;-58
2024/01/03 08:08:14;;;;;;;0.70;0.30;;;;;;;8.92;100.00;98300.83;105746;1254;72562;-56
2024/01/03 08:10:42;;;;;;;0.50;0.10;;;;;;;8.91;100.00;98305.42;105627;1255;69247;-58
2024/01/03 08:13:12;;;;;;;1.60;0.20;;;;;;;8.91;100.00;98308.41;105608;1255;69222;-58
2024/01/03 08:15:41;;;;;;;0.90;0.30;;;;;;;8.90;100.00;98314.23;105676;1253;72709;-59
2024/01/03 08:18:10;;;;;;;0.90;0.30;;;;;;;8.92;100.00;98314.57;105612;1254;81499;-59
2024/01/03 08:20:39;;;;;;;1.10;0.40;;;;;;;8.94;100.00;98317.61;105714;1255;71776;-59
2024/01/03 08:23:07;;;;;;;1.40;0.30;;;;;;;8.95;100.00;98320.83;105578;1256;69532;-59
2024/01/03 08:25:36;;;;;;;2.20;0.30;;;;;;;8.98;100.00;98318.23;105562;1255;69163;-59
2024/01/03 08:28:04;;;;;;;1.30;0.30;;;;;;;9.01;100.00;98315.08;105833;1256;74731;-60
2024/01/03 08:30:33;;;;;;;2.80;0.60;;;;;;;9.05;100.00;98322.32;105776;1254;81965;-59
2024/01/03 08:33:01;;;;;;;1.40;0.40;;;;;;;9.09;100.00;98323.77;105702;1253;72987;-58
2024/01/03 08:35:30;;;;;;;0.50;0.20;;;;;;;9.12;100.00;98326.02;105609;1253;69035;-59
2024/01/03 08:37:58;;;;;;;0.90;0.40;;;;;;;9.15;100.00;98331.94;105715;1253;69186;-59
2024/01/03 08:40:27;;;;;;;1.20;0.30;;;;;;;9.18;100.00;98324.80;105776;1254;74031;-59
2024/01/03 08:42:55;;;;;;;2.40;0.50;;;;;;;9.22;100.00;98326.27;105592;1255;81945;-59
2024/01/03 08:45:23;;;;;;;0.50;0.30;;;;;;;9.26;100.00;98328.31;105572;1254;71702;-60
2024/01/03 08:47:51;;;;;;;0.50;0.40;;;;;;;9.28;100.00;98332.50;105758;1253;69189;-58
2024/01/03 08:50:21;;;;;;;0.70;0.20;;;;;;;9.32;100.00;98328.23;105722;1253;69179;-55
2024/01/03 08:52:49;;;;;;;1.00;0.40;;;;;;;9.36;100.00;98330.59;105796;1252;72856;-56
2024/01/03 08:55:18;;;;;;;1.30;0.30;;;;;;;9.41;100.00;98329.92;105595;1253;81902;-56
2024/01/03 08:57:49;;;;;;;1.10;0.30;;;;;;;9.48;100.00;98335.92;105714;1255;71888;-56
2024/01/03 09:00:18;;;;;;;1.00;0.40;;;;;;;9.57;100.00;98339.11;105585;1253;69211;-51
2024/01/03 09:02:46;;;;;;;2.20;0.40;;;;;;;9.68;100.00;98330.60;105643;1254;69113;-59
2024/01/03 09:05:14;;;;;;;0.90;0.40;;;;;;;9.78;100.00;98332.52;105844;1253;72592;-59
2024/01/03 09:07:44;;;;;;;2.50;0.50;;;;;;;9.87;100.00;98337.66;105816;1252;83563;-58
2024/01/03 09:10:13;;;;;;;;;;;;;;;9.95;100.00;98335.43;105571;1254;72114;-58
2024/01/03 09:12:41;;;;;;;1.40;0.40;;;;;;;10.02;100.00;98341.34;105685;1256;69126;-58
2024/01/03 09:15:09;;;;;;;1.10;0.30;;;;;;;10.11;100.00;98343.05;105690;1253;69082;-57
2024/01/03 09:17:42;;;;;;;0.90;0.50;;;;;;;10.15;100.00;98344.67;105613;1254;73906;-55
2024/01/03 09:20:12;;;;;;;0.30;0.20;;;;;;;10.21;100.00;98352.83;105662;1253;82800;-54
2024/01/03 09:22:40;;;;;;;0.80;0.60;;;;;;;10.18;100.00;98343.13;105676;1253;70669;-55
2024/01/03 09:25:09;;;;;;;0.70;0.30;;;;;;;10.11;100.00;98344.82;105724;1253;69129;-56
2024/01/03 09:27:37;;;;;;;1.40;0.40;;;;;;;10.05;100.00;98352.33;105581;1255;69177;-54
2024/01/03 09:30:06;;;;;;;1.80;0.40;;;;;;;10.09;100.00;98344.95;105600;1253;72670;-55
2024/01/03 09:32:35;;;;;;;3.90;0.40;;;;;;;10.19;100.00;98350.19;105711;1254;81440;-55
2024/01/03 09:35:04;;;;;;;0.70;0.40;;;;;;;10.29;100.00;98346.73;105513;1257;72354;-53
2024/01/03 09:37:32;;;;;;;1.40;0.40;;;;;;;10.36;100.00;98345.95;105634;1255;69218;-53
2024/01/03 09:40:00;;;;;;;1.30;0.40;;;;;;;10.38;100.00;98346.98;105770;1256;69209;-55
2024/01/03 09:42:29;;;;;;;1.80;0.40;;;;;;;10.43;100.00;98346.63;105673;1253;74061;-55
2024/01/03 09:44:58;;;;;;;1.60;0.60;;;;;;;10.48;100.00;98346.46;105562;1257;82201;-58
2024/01/03 09:47:27;;;;;;;2.20;0.60;;;;;;;10.50;100.00;98347.39;105715;1253;72281;-58
2024/01/03 09:49:55;;;;;;;1.80;0.50;;;;;;;10.48;99.85;98351.15;105705;1255;69147;-58
2024/01/03 09:52:24;;;;;;;2.30;0.60;;;;;;;10.49;99.34;98354.95;105864;1253;69103;-58
2024/01/03 09:54:52;;;;;;;2.00;0.40;;;;;;;10.51;98.99;98352.93;105599;1254;73049;-58
2024/01/03 09:57:21;;;;;;;1.90;0.30;;;;;;;10.56;98.87;98357.64;105609;1253;80770;-57
2024/01/03 09:59:49;;;;;;;1.80;0.50;;;;;;;10.65;98.72;98358.21;105684;1255;71666;-58
2024/01/03 10:02:17;;;;;;;0.80;0.40;;;;;;;10.73;98.56;98362.18;105605;1256;69122;-58
2024/01/03 10:04:45;;;;;;;1.30;0.40;;;;;;;10.79;97.68;98374.17;105506;1255;69154;-58
2024/01/03 10:07:14;;;;;;;1.90;0.60;;;;;;;10.84;97.48;98359.70;105587;1256;73517;-57
2024/01/03 10:09:45;;;;;;;1.40;0.40;;;;;;;10.89;97.11;98368.61;105602;1253;82759;-57
2024/01/03 10:12:17;;;;;;;1.30;0.40;;;;;;;10.94;97.07;98365.27;105679;1253;73905;-59
2024/01/03 10:14:47;;;;;;;1.50;0.40;;;;;;;11.05;95.57;98371.11;105661;1256;69113;-58
2024/01/03 10:17:15;;;;;;;3.40;0.90;;;;;;;11.08;95.09;98376.14;105789;1255;69200;-58
2024/01/03 10:19:44;;;;;;;2.00;0.50;;;;;;;11.14;94.50;98371.86;105816;1252;73151;-56
2024/01/03 10:22:18;;;;;;;0.90;0.30;;;;;;;11.33;94.22;98365.44;105767;1255;81828;-58
2024/01/03 10:24:46;;;;;;;1.60;0.50;;;;;;;11.61;93.93;98366.90;105634;1255;72175;-58
2024/01/03 10:27:14;;;;;;;3.40;0.50;;;;;;;11.85;93.37;98364.76;105732;1255;69138;-58
2024/01/03 10:29:42;;;;;;;1.30;0.40;;;;;;;12.06;93.30;98350.95;105541;1255;69142;-57
2024/01/03 10:32:14;;;;;;;1.20;0.40;;;;;;;12.32;92.60;98353.38;105600;1253;72913;-58
2024/01/03 10:34:42;;;;;;;1.70;0.70;;;;;;;12.50;91.98;98354.27;105707;1254;80927;-58
2024/01/03 10:37:11;;;;;;;3.30;0.70;;;;;;;12.73;92.39;98355.45;105682;1255;72942;-56
2024/01/03 10:39:40;;;;;;;1.60;0.30;;;;;;;12.95;91.59;98354.39;105699;1252;69516;-58
2024/01/03 10:42:09;;;;;;;2.40;0.60;;;;;;;13.13;91.03;98348.05;105450;1256;314440;-57
2024/01/03 10:44:37;;;;;;;1.90;0.40;;;;;;;13.28;90.59;98350.02;105801;1253;73117;-59
2024/01/03 10:47:06;;;;;;;1.60;0.60;;;;;;;13.09;88.91;98354.85;105465;1254;81906;-59
2024/01/03 10:49:34;;;;;;;1.10;0.60;;;;;;;12.87;89.07;98343.23;105549;1253;71913;-59
2024/01/03 10:52:04;;;;;;;2.00;0.40;;;;;;;12.78;89.47;98347.50;105592;1253;69084;-59
2024/01/03 10:54:40;;;;;;;2.50;0.70;;;;;;;12.72;88.54;98352.70;105459;1253;69060;-59
2024/01/03 10:57:10;;;;;;;1.30;0.50;;;;;;;12.68;88.04;98350.04;105604;1253;72389;-59
2024/01/03 10:59:40;;;;;;;;;;;;;;;12.66;86.78;98355.99;105618;1253;82970;-59
2024/01/03 11:02:24;;;;;;;1.60;0.50;;;;;;;12.50;86.25;98354.25;105603;1255;71658;-59
2024/01/03 11:05:01;;;;;;;2.40;0.70;;;;;;;12.50;86.90;98347.04;105585;1256;69116;-59
2024/01/03 11:07:42;;;;;;;4.40;0.70;;;;;;;12.56;86.56;98341.88;105593;1256;69122;-59
2024/01/03 11:10:46;;;;;;;2.30;0.70;;;;;;;12.56;86.87;98344.70;105585;1253;72141;-58
2024/01/03 11:13:33;;;;;;;0.80;0.50;;;;;;;12.47;86.60;98341.64;105605;1254;81943;-59
2024/01/03 11:16:04;;;;;;;2.90;0.80;;;;;;;12.64;86.56;98333.37;105599;1253;70576;-60
2024/01/03 11:18:41;;;;;;;;;;;;;;;12.76;85.55;98336.48;105617;1256;69167;-59
2024/01/03 11:21:31;;;;;;;2.00;0.80;;;;;;;12.81;85.09;98338.34;105682;1252;69190;-58
2024/01/03 11:23:59;;;;;;;4.20;0.80;;;;;;;13.07;85.55;98335.05;105660;1256;72076;-58
2024/01/03 11:27:07;;;;;;;2.70;0.70;;;;;;;13.24;84.51;98327.73;105622;1255;82610;-58
2024/01/03 11:29:35;;;;;;;1.80;0.60;;;;;;;13.29;83.41;98330.48;105023;1263;73174;-58
2024/01/03 11:32:06;;;;;;;;;;;;;;;13.29;83.65;98325.53;104963;1263;69191;-58
2024/01/03 11:34:44;;;;;;;2.30;0.70;;;;;;;13.33;83.58;98334.92;104970;1263;69380;-57